createdAt,value
2023-01-18T00:01:19.730Z,2.95
2023-01-18T00:03:47.707Z,2.90
2023-01-18T00:06:15.091Z,3.00
2023-01-18T00:08:45.265Z,2.60
2023-01-18T00:11:15.730Z,3.53
2023-01-18T00:13:43.362Z,3.00
2023-01-18T00:16:22.015Z,3.50
2023-01-18T00:18:54.585Z,3.17
2023-01-18T00:21:22.689Z,8.48
2023-01-18T00:23:50.154Z,2.85
2023-01-18T00:26:17.683Z,2.85
2023-01-18T00:28:45.129Z,3.20
2023-01-18T00:31:14.333Z,2.72
2023-01-18T00:33:46.338Z,2.60
2023-01-18T00:36:14.843Z,2.97
2023-01-18T00:38:52.490Z,2.72
2023-01-18T00:41:21.589Z,2.72
2023-01-18T00:43:49.508Z,2.63
2023-01-18T00:46:23.034Z,2.60
2023-01-18T00:48:51.949Z,2.97
2023-01-18T00:51:24.939Z,4.03
2023-01-18T00:53:52.564Z,2.50
2023-01-18T00:56:22.221Z,2.60
2023-01-18T00:58:49.626Z,2.63
2023-01-18T01:01:17.294Z,2.63
2023-01-18T01:04:03.136Z,2.85
2023-01-18T01:06:46.371Z,2.75
2023-01-18T01:09:26.167Z,3.03
2023-01-18T01:12:13.246Z,2.80
2023-01-18T01:15:02.457Z,2.72
2023-01-18T01:17:53.599Z,3.10
2023-01-18T01:20:40.061Z,2.95
2023-01-18T01:23:35.072Z,2.70
2023-01-18T01:26:11.098Z,2.80
2023-01-18T01:28:43.816Z,3.00
2023-01-18T01:31:15.666Z,3.55
2023-01-18T01:33:45.016Z,2.80
2023-01-18T01:36:15.762Z,3.42
2023-01-18T01:38:43.337Z,3.10
2023-01-18T01:41:18.058Z,2.60
2023-01-18T01:43:50.978Z,3.53
2023-01-18T01:46:49.115Z,3.15
2023-01-18T01:49:24.150Z,3.33
2023-01-18T01:51:55.857Z,3.30
2023-01-18T01:54:39.093Z,2.85
2023-01-18T01:57:15.840Z,2.80
2023-01-18T01:59:55.897Z,3.28
2023-01-18T02:02:23.299Z,3.67
2023-01-18T02:04:53.978Z,2.88
2023-01-18T02:07:26.559Z,3.40
2023-01-18T02:09:54.569Z,3.33
2023-01-18T02:12:21.975Z,2.95
2023-01-18T02:14:49.366Z,2.45
2023-01-18T02:17:32.882Z,3.45
2023-01-18T02:20:43.607Z,3.50
2023-01-18T02:23:43.985Z,2.80
2023-01-18T02:26:38.956Z,2.63
2023-01-18T02:29:36.854Z,2.60
2023-01-18T02:32:25.569Z,3.08
2023-01-18T02:35:07.060Z,2.95
2023-01-18T02:38:03.358Z,3.10
2023-01-18T02:40:39.746Z,3.00
2023-01-18T02:43:28.855Z,2.67
2023-01-18T02:46:16.018Z,2.90
2023-01-18T02:48:45.376Z,2.55
2023-01-18T02:51:12.720Z,2.50
2023-01-18T02:53:43.905Z,2.67
2023-01-18T02:56:25.759Z,3.22
2023-01-18T02:59:02.385Z,2.58
2023-01-18T03:01:44.672Z,2.50
2023-01-18T03:04:22.322Z,2.60
2023-01-18T03:06:57.531Z,3.47
2023-01-18T03:09:27.466Z,2.90
2023-01-18T03:12:17.864Z,2.90
2023-01-18T03:15:10.325Z,3.00
2023-01-18T03:18:05.596Z,2.72
2023-01-18T03:20:40.784Z,2.88
2023-01-18T03:23:34.532Z,3.08
2023-01-18T03:26:04.161Z,2.45
2023-01-18T03:28:59.483Z,2.50
2023-01-18T03:32:07.783Z,3.05
2023-01-18T03:35:13.543Z,2.80
2023-01-18T03:37:43.631Z,2.97
2023-01-18T03:40:13.035Z,3.13
2023-01-18T03:43:15.204Z,3.10
2023-01-18T03:45:50.161Z,3.25
2023-01-18T03:48:17.807Z,2.75
2023-01-18T03:51:16.512Z,3.13
2023-01-18T03:53:58.309Z,2.92
2023-01-18T03:56:39.204Z,2.75
2023-01-18T03:59:08.169Z,2.80
2023-01-18T04:01:36.039Z,2.63
2023-01-18T04:04:03.375Z,3.00
2023-01-18T04:06:32.822Z,3.50
2023-01-18T04:09:00.141Z,3.22
2023-01-18T04:11:27.490Z,3.20
2023-01-18T04:13:55.173Z,4.18
2023-01-18T04:16:22.786Z,3.90
2023-01-18T04:18:50.157Z,3.45
2023-01-18T04:21:17.465Z,4.18
2023-01-18T04:23:44.783Z,4.20
2023-01-18T04:26:15.463Z,4.45
2023-01-18T04:28:43.550Z,4.90
2023-01-18T04:31:10.916Z,4.32
2023-01-18T04:33:38.200Z,6.32
2023-01-18T04:36:05.791Z,4.78
2023-01-18T04:38:33.882Z,5.47
2023-01-18T04:41:05.763Z,6.05
2023-01-18T04:43:33.095Z,5.10
2023-01-18T04:46:00.611Z,7.78
2023-01-18T04:48:27.968Z,6.65
2023-01-18T04:50:55.436Z,3.95
2023-01-18T04:53:23.225Z,4.60
2023-01-18T04:55:50.688Z,5.72
2023-01-18T04:58:18.041Z,5.20
2023-01-18T05:00:45.520Z,6.00
2023-01-18T05:03:13.460Z,5.75
2023-01-18T05:05:41.261Z,4.93
2023-01-18T05:08:08.682Z,4.88
2023-01-18T05:10:36.153Z,6.45
2023-01-18T05:13:03.938Z,5.07
2023-01-18T05:15:31.346Z,4.85
2023-01-18T05:17:58.682Z,4.75
2023-01-18T05:20:25.932Z,3.78
2023-01-18T05:22:53.373Z,4.55
2023-01-18T05:25:20.793Z,3.58
2023-01-18T05:27:48.119Z,3.85
2023-01-18T05:30:15.749Z,4.55
2023-01-18T05:32:43.144Z,4.43
2023-01-18T05:35:11.417Z,4.28
2023-01-18T05:37:38.828Z,4.50
2023-01-18T05:40:06.743Z,4.82
2023-01-18T05:42:34.083Z,4.90
2023-01-18T05:45:01.395Z,4.55
2023-01-18T05:47:28.755Z,4.90
2023-01-18T05:49:58.036Z,3.85
2023-01-18T05:52:25.382Z,4.85
2023-01-18T05:54:52.613Z,5.72
2023-01-18T05:57:19.891Z,4.72
2023-01-18T05:59:47.169Z,5.50
2023-01-18T06:02:14.710Z,5.78
2023-01-18T06:04:42.104Z,4.03
2023-01-18T06:07:09.607Z,5.30
2023-01-18T06:09:37.152Z,5.32
2023-01-18T06:12:04.644Z,5.32
2023-01-18T06:14:32.043Z,4.80
2023-01-18T06:16:59.349Z,6.55
2023-01-18T06:19:26.881Z,6.68
2023-01-18T06:21:54.874Z,6.05
2023-01-18T06:24:22.225Z,5.72
2023-01-18T06:26:49.515Z,6.82
2023-01-18T06:29:16.974Z,6.20
2023-01-18T06:31:44.337Z,6.07
2023-01-18T06:34:11.885Z,7.80
2023-01-18T06:36:40.559Z,7.88
2023-01-18T06:39:08.011Z,8.68
2023-01-18T06:41:35.379Z,8.20
2023-01-18T06:44:03.810Z,10.20
2023-01-18T06:46:31.241Z,8.05
2023-01-18T06:48:58.541Z,8.52
2023-01-18T06:51:25.891Z,7.95
2023-01-18T06:53:53.311Z,8.02
2023-01-18T06:56:21.055Z,9.00
2023-01-18T06:58:48.675Z,10.00
2023-01-18T07:01:16.151Z,8.93
2023-01-18T07:03:43.733Z,8.63
2023-01-18T07:06:11.607Z,8.32
2023-01-18T07:08:40.359Z,8.93
2023-01-18T07:11:09.243Z,8.35
2023-01-18T07:13:40.299Z,8.32
2023-01-18T07:16:09.040Z,8.48
2023-01-18T07:18:36.447Z,9.50
2023-01-18T07:21:07.239Z,9.05
2023-01-18T07:23:36.744Z,8.65
2023-01-18T07:26:11.132Z,8.90
2023-01-18T07:28:38.976Z,8.93
2023-01-18T07:31:08.176Z,8.73
2023-01-18T07:33:36.450Z,9.50
2023-01-18T07:36:06.524Z,9.30
2023-01-18T07:38:34.417Z,9.45
2023-01-18T07:41:03.354Z,9.65
2023-01-18T07:43:32.555Z,9.45
2023-01-18T07:46:00.911Z,9.07
2023-01-18T07:48:29.292Z,7.88
2023-01-18T07:51:01.981Z,9.55
2023-01-18T07:53:31.006Z,7.55
2023-01-18T07:56:07.311Z,6.50
2023-01-18T07:58:36.121Z,8.70
2023-01-18T08:01:15.490Z,10.05
2023-01-18T08:03:44.470Z,8.77
2023-01-18T08:06:17.155Z,8.70
2023-01-18T08:08:45.157Z,10.30
2023-01-18T08:11:12.904Z,10.00
2023-01-18T08:13:40.417Z,11.70
2023-01-18T08:16:09.453Z,10.48
2023-01-18T08:18:36.970Z,8.73
2023-01-18T08:21:04.393Z,9.07
2023-01-18T08:23:31.702Z,10.10
2023-01-18T08:26:03.409Z,8.23
2023-01-18T08:28:31.500Z,9.13
2023-01-18T08:31:08.309Z,8.07
2023-01-18T08:33:45.732Z,9.45
2023-01-18T08:36:16.779Z,8.20
2023-01-18T08:38:47.599Z,8.93
2023-01-18T08:41:15.025Z,9.00
2023-01-18T08:43:43.181Z,9.02
2023-01-18T08:46:10.621Z,8.93
2023-01-18T08:48:37.985Z,8.48
2023-01-18T08:51:05.519Z,8.82
2023-01-18T08:53:33.064Z,8.80
2023-01-18T08:56:03.398Z,10.48
2023-01-18T08:58:32.389Z,9.82
2023-01-18T09:00:59.772Z,9.27
2023-01-18T09:03:27.108Z,6.97
2023-01-18T09:05:54.954Z,7.50
2023-01-18T09:08:23.206Z,6.22
2023-01-18T09:10:50.505Z,5.68
2023-01-18T09:13:17.877Z,6.47
2023-01-18T09:15:47.156Z,6.53
2023-01-18T09:18:14.529Z,6.85
2023-01-18T09:20:43.770Z,6.00
2023-01-18T09:23:11.205Z,6.85
2023-01-18T09:25:41.262Z,6.80
2023-01-18T09:28:09.064Z,6.28
2023-01-18T09:30:40.076Z,15.23
2023-01-18T09:33:11.368Z,5.63
2023-01-18T09:35:39.002Z,6.63
2023-01-18T09:38:07.561Z,5.57
2023-01-18T09:40:44.536Z,5.60
2023-01-18T09:43:30.364Z,6.40
2023-01-18T09:46:00.010Z,5.55
2023-01-18T09:48:32.248Z,6.63
2023-01-18T09:51:05.222Z,6.30
2023-01-18T09:54:05.080Z,6.72
2023-01-18T09:57:05.669Z,7.03
2023-01-18T09:59:37.436Z,11.88
2023-01-18T10:02:21.558Z,9.48
2023-01-18T10:04:56.084Z,6.32
2023-01-18T10:07:27.625Z,5.43
2023-01-18T10:09:58.895Z,17.35
2023-01-18T10:12:42.473Z,7.10
2023-01-18T10:15:23.657Z,7.30
2023-01-18T10:17:56.858Z,5.07
2023-01-18T10:20:35.789Z,5.07
2023-01-18T10:23:25.073Z,7.63
2023-01-18T10:26:27.392Z,7.72
2023-01-18T10:28:59.265Z,6.43
2023-01-18T10:31:59.879Z,5.55
2023-01-18T10:34:33.100Z,6.78
2023-01-18T10:37:21.322Z,6.13
2023-01-18T10:39:54.300Z,6.43
2023-01-18T10:42:29.525Z,6.88
2023-01-18T10:44:57.487Z,8.00
2023-01-18T10:47:24.809Z,6.72
2023-01-18T10:50:01.640Z,6.07
2023-01-18T10:52:33.200Z,6.43
2023-01-18T10:55:03.372Z,6.78
2023-01-18T10:57:32.920Z,5.68
2023-01-18T11:00:00.468Z,6.95
2023-01-18T11:02:36.143Z,5.60
2023-01-18T11:05:18.928Z,6.32
2023-01-18T11:07:46.277Z,5.03
2023-01-18T11:10:27.872Z,6.93
2023-01-18T11:12:55.672Z,6.13
2023-01-18T11:15:25.004Z,7.00
2023-01-18T11:17:56.415Z,6.85
2023-01-18T11:20:25.845Z,7.45
2023-01-18T11:23:02.519Z,5.13
2023-01-18T11:25:39.420Z,11.70
2023-01-18T11:28:27.841Z,7.40
2023-01-18T11:31:15.432Z,9.18
2023-01-18T11:33:58.011Z,10.48
2023-01-18T11:36:43.812Z,23.00
2023-01-18T11:39:25.777Z,6.45
2023-01-18T11:44:40.222Z,8.20
2023-01-18T11:47:16.872Z,8.48
2023-01-18T11:50:21.058Z,10.65
2023-01-18T11:53:01.244Z,6.50
2023-01-18T11:55:41.087Z,38.42
2023-01-18T11:58:26.995Z,15.93
2023-01-18T12:01:25.413Z,15.70
2023-01-18T12:03:56.962Z,6.40
2023-01-18T12:06:41.566Z,7.70
2023-01-18T12:09:14.756Z,6.13
2023-01-18T12:12:17.910Z,5.05
2023-01-18T12:14:59.628Z,17.75
2023-01-18T12:17:39.134Z,6.15
2023-01-18T12:20:10.320Z,12.63
2023-01-18T12:23:28.261Z,5.72
2023-01-18T12:26:11.799Z,19.63
2023-01-18T12:28:40.005Z,28.30
2023-01-18T12:31:15.344Z,10.10
2023-01-18T12:34:15.019Z,23.42
2023-01-18T12:36:59.031Z,11.48
2023-01-18T12:39:44.278Z,5.85
2023-01-18T12:42:36.440Z,3.40
2023-01-18T12:45:46.184Z,4.22
2023-01-18T12:48:41.332Z,4.40
2023-01-18T12:51:21.728Z,25.75
2023-01-18T12:53:55.867Z,12.60
2023-01-18T12:56:36.154Z,14.27
2023-01-18T12:59:29.233Z,6.72
2023-01-18T13:02:05.886Z,20.77
2023-01-18T13:04:45.330Z,12.88
2023-01-18T13:07:15.721Z,5.78
2023-01-18T13:09:49.694Z,8.73
2023-01-18T13:12:17.792Z,5.35
2023-01-18T13:14:54.261Z,21.02
2023-01-18T13:17:48.686Z,7.40
2023-01-18T13:20:20.045Z,6.25
2023-01-18T13:23:05.454Z,10.70
2023-01-18T13:25:41.804Z,7.00
2023-01-18T13:28:18.020Z,10.75
2023-01-18T13:31:06.546Z,6.32
2023-01-18T13:33:40.928Z,4.68
2023-01-18T13:36:09.277Z,16.50
2023-01-18T13:38:58.937Z,5.78
2023-01-18T13:41:30.964Z,3.47
2023-01-18T13:46:26.201Z,2.55
2023-01-18T13:49:35.729Z,10.70
2023-01-18T13:52:31.697Z,9.13
2023-01-18T13:55:02.531Z,3.60
2023-01-18T13:57:34.681Z,3.83
2023-01-18T14:00:02.878Z,3.58
2023-01-18T14:02:45.544Z,4.60
2023-01-18T14:05:28.920Z,5.38
2023-01-18T14:08:01.677Z,7.47
2023-01-18T14:10:32.232Z,29.80
2023-01-18T14:13:02.791Z,4.35
2023-01-18T14:15:39.771Z,3.80
2023-01-18T14:18:24.272Z,4.85
2023-01-18T14:21:23.922Z,4.13
2023-01-18T14:24:09.612Z,5.32
2023-01-18T14:26:39.526Z,5.43
2023-01-18T14:29:29.170Z,4.03
2023-01-18T14:31:57.454Z,3.50
2023-01-18T14:34:30.619Z,7.07
2023-01-18T14:36:58.386Z,5.70
2023-01-18T14:39:26.130Z,3.97
2023-01-18T14:42:05.327Z,3.50
2023-01-18T14:44:58.263Z,3.92
2023-01-18T14:47:32.404Z,3.42
2023-01-18T14:50:04.124Z,4.30
2023-01-18T14:52:34.410Z,3.92
2023-01-18T14:55:02.678Z,4.13
2023-01-18T14:57:30.145Z,3.95
2023-01-18T15:00:16.649Z,4.63
2023-01-18T15:02:44.263Z,4.15
2023-01-18T15:05:20.281Z,4.15
2023-01-18T15:07:56.063Z,3.60
2023-01-18T15:10:24.949Z,4.15
2023-01-18T15:12:57.941Z,4.93
2023-01-18T15:15:40.759Z,4.07
2023-01-18T15:18:15.644Z,5.05
2023-01-18T15:21:06.369Z,6.38
2023-01-18T15:23:36.942Z,4.88
2023-01-18T15:26:04.449Z,5.43
2023-01-18T15:28:34.825Z,4.90
2023-01-18T15:31:16.377Z,5.25
2023-01-18T15:33:45.018Z,6.30
2023-01-18T15:36:12.640Z,5.75
2023-01-18T15:38:40.070Z,5.72
2023-01-18T15:41:11.616Z,6.15
2023-01-18T15:43:43.113Z,4.35
2023-01-18T15:46:16.226Z,4.47
2023-01-18T15:48:58.254Z,5.07
2023-01-18T15:51:44.146Z,6.30
2023-01-18T15:54:20.366Z,5.72
2023-01-18T15:56:49.361Z,6.10
2023-01-18T15:59:23.443Z,6.25
2023-01-18T16:02:26.426Z,12.90
2023-01-18T16:05:14.629Z,6.97
2023-01-18T16:07:42.299Z,6.88
2023-01-18T16:10:20.473Z,7.40
2023-01-18T16:12:48.186Z,6.68
2023-01-18T16:15:30.460Z,6.20
2023-01-18T16:20:32.561Z,7.53
2023-01-18T16:23:14.088Z,6.90
2023-01-18T16:25:41.510Z,6.67
2023-01-18T16:28:08.784Z,7.85
2023-01-18T16:30:38.015Z,6.95
2023-01-18T16:33:14.131Z,7.13
2023-01-18T16:35:42.206Z,6.82
2023-01-18T16:38:17.438Z,7.78
2023-01-18T16:40:47.345Z,9.13
2023-01-18T16:43:23.880Z,9.43
2023-01-18T16:45:54.902Z,6.50
2023-01-18T16:48:28.288Z,7.45
2023-01-18T16:51:01.893Z,9.60
2023-01-18T16:53:29.721Z,7.55
2023-01-18T16:55:57.042Z,13.48
2023-01-18T16:58:24.593Z,7.90
2023-01-18T17:01:03.444Z,8.98
2023-01-18T17:03:30.917Z,10.02
2023-01-18T17:05:58.269Z,7.85
2023-01-18T17:08:25.560Z,8.90
2023-01-18T17:10:54.885Z,7.88
2023-01-18T17:13:22.487Z,9.10
2023-01-18T17:15:51.370Z,8.43
2023-01-18T17:18:24.212Z,8.80
2023-01-18T17:20:52.009Z,10.05
2023-01-18T17:23:19.788Z,8.85
2023-01-18T17:25:47.861Z,8.13
2023-01-18T17:28:16.898Z,8.23
2023-01-18T17:30:47.180Z,8.88
2023-01-18T17:33:22.984Z,8.05
2023-01-18T17:35:52.001Z,8.02
2023-01-18T17:38:25.720Z,7.30
2023-01-18T17:40:54.868Z,8.85
2023-01-18T17:43:32.987Z,7.82
2023-01-18T17:46:06.205Z,8.05
2023-01-18T17:51:01.221Z,7.68
2023-01-18T17:53:28.557Z,9.65
2023-01-18T17:55:55.858Z,10.27
2023-01-18T17:58:23.176Z,11.77
2023-01-18T18:00:50.677Z,11.93
2023-01-18T18:03:18.110Z,9.77
2023-01-18T18:05:45.536Z,9.95
2023-01-18T18:08:12.747Z,10.68
2023-01-18T18:10:43.417Z,10.38
2023-01-18T18:13:12.150Z,10.75
2023-01-18T18:15:45.118Z,10.02
2023-01-18T18:18:22.747Z,9.52
2023-01-18T18:20:58.890Z,11.20
2023-01-18T18:23:27.436Z,11.57
2023-01-18T18:25:55.781Z,9.57
2023-01-18T18:28:24.592Z,11.15
2023-01-18T18:30:52.228Z,12.02
2023-01-18T18:33:20.362Z,12.77
2023-01-18T18:35:52.181Z,12.88
2023-01-18T18:38:23.168Z,13.35
2023-01-18T18:40:51.551Z,13.10
2023-01-18T18:43:19.296Z,11.45
2023-01-18T18:45:47.771Z,11.20
2023-01-18T18:48:15.314Z,11.52
2023-01-18T18:50:42.576Z,11.05
2023-01-18T18:53:09.887Z,10.48
2023-01-18T18:55:37.272Z,10.65
2023-01-18T18:58:05.362Z,11.75
2023-01-18T19:00:32.746Z,11.20
2023-01-18T19:03:02.599Z,9.85
2023-01-18T19:05:31.705Z,8.80
2023-01-18T19:07:59.811Z,11.73
2023-01-18T19:10:30.495Z,11.65
2023-01-18T19:12:59.543Z,14.70
2023-01-18T19:15:26.977Z,29.42
2023-01-18T19:17:54.351Z,29.30
2023-01-18T19:20:21.995Z,47.53
2023-01-18T19:22:50.914Z,41.85
2023-01-18T19:25:18.298Z,72.53
2023-01-18T19:27:46.277Z,49.03
2023-01-18T19:30:19.134Z,39.53
2023-01-18T19:32:51.090Z,30.45
2023-01-18T19:35:20.110Z,27.95
2023-01-18T19:37:48.068Z,12.70
2023-01-18T19:40:16.332Z,13.25
2023-01-18T19:42:44.818Z,13.38
2023-01-18T19:45:19.578Z,20.73
2023-01-18T19:47:54.757Z,114.07
2023-01-18T19:50:22.294Z,202.85
2023-01-18T19:52:50.447Z,151.15
2023-01-18T19:55:17.907Z,78.03
2023-01-18T19:57:45.313Z,73.57
2023-01-18T20:00:15.591Z,50.90
2023-01-18T20:02:43.820Z,51.28
2023-01-18T20:05:11.162Z,42.97
2023-01-18T20:07:40.319Z,34.85
2023-01-18T20:10:08.725Z,47.80
2023-01-18T20:12:36.014Z,32.40
2023-01-18T20:15:03.545Z,27.08
2023-01-18T20:17:30.896Z,28.88
2023-01-18T20:19:58.073Z,31.77
2023-01-18T20:22:25.448Z,27.63
2023-01-18T20:24:52.671Z,25.52
2023-01-18T20:27:20.028Z,67.75
2023-01-18T20:29:47.327Z,83.13
2023-01-18T20:32:17.080Z,42.20
2023-01-18T20:34:46.998Z,53.15
2023-01-18T20:37:15.759Z,27.55
2023-01-18T20:39:43.476Z,31.67
2023-01-18T20:42:10.982Z,32.28
2023-01-18T20:44:38.375Z,26.13
2023-01-18T20:47:05.881Z,23.83
2023-01-18T20:49:38.035Z,23.83
2023-01-18T20:52:07.219Z,18.73
2023-01-18T20:54:37.995Z,17.75
2023-01-18T20:57:06.350Z,17.05
2023-01-18T20:59:33.653Z,15.55
2023-01-18T21:02:10.287Z,15.82
2023-01-18T21:04:39.781Z,15.43
2023-01-18T21:07:07.002Z,12.85
2023-01-18T21:09:34.214Z,11.32
2023-01-18T21:12:01.575Z,12.93
2023-01-18T21:15:16.737Z,13.35
2023-01-18T21:18:04.166Z,9.57
2023-01-18T21:20:34.509Z,10.60
2023-01-18T21:23:02.109Z,12.32
2023-01-18T21:25:29.751Z,11.07
2023-01-18T21:28:00.424Z,8.80
2023-01-18T21:30:27.947Z,9.25
2023-01-18T21:32:58.044Z,9.23
2023-01-18T21:35:25.349Z,10.50
2023-01-18T21:37:52.742Z,11.20
2023-01-18T21:40:20.037Z,9.82
2023-01-18T21:43:08.458Z,9.35
2023-01-18T21:45:56.700Z,9.70
2023-01-18T21:48:43.484Z,8.85
2023-01-18T21:51:31.492Z,8.45
2023-01-18T21:57:34.201Z,6.80
2023-01-18T22:00:05.753Z,8.43
2023-01-18T22:02:35.075Z,9.52
2023-01-18T22:05:06.235Z,6.90
2023-01-18T22:07:35.500Z,8.48
2023-01-18T22:10:06.141Z,9.10
2023-01-18T22:12:36.038Z,7.83
2023-01-18T22:15:05.363Z,7.28
2023-01-18T22:17:35.693Z,7.32
2023-01-18T22:20:04.699Z,6.70
2023-01-18T22:22:31.962Z,8.30
2023-01-18T22:25:02.286Z,8.05
2023-01-18T22:27:29.744Z,7.93
2023-01-18T22:32:39.095Z,5.30
2023-01-18T22:35:06.581Z,4.72
2023-01-18T22:37:33.737Z,3.42
2023-01-18T22:40:01.018Z,3.03
2023-01-18T22:42:28.370Z,2.45
2023-01-18T22:44:55.610Z,3.13
2023-01-18T22:47:22.990Z,1.98
2023-01-18T22:49:50.181Z,2.08
2023-01-18T22:52:17.580Z,1.92
2023-01-18T22:54:44.991Z,2.88
2023-01-18T22:57:13.295Z,2.00
2023-01-18T22:59:40.710Z,2.72
2023-01-18T23:02:07.960Z,1.83
2023-01-18T23:04:35.516Z,2.28
2023-01-18T23:07:02.751Z,3.95
2023-01-18T23:09:38.492Z,5.22
2023-01-18T23:12:05.913Z,2.17
2023-01-18T23:14:53.427Z,3.60
2023-01-18T23:17:39.337Z,2.78
2023-01-18T23:20:11.816Z,2.10
2023-01-18T23:22:40.941Z,2.33
2023-01-18T23:25:12.445Z,1.48
2023-01-18T23:27:39.799Z,1.98
2023-01-18T23:30:07.613Z,1.35
2023-01-18T23:32:37.434Z,1.63
2023-01-18T23:35:06.168Z,1.15
2023-01-18T23:37:34.977Z,1.70
2023-01-18T23:40:22.571Z,1.30
2023-01-18T23:43:12.195Z,1.60
2023-01-18T23:45:58.201Z,1.80
2023-01-18T23:48:45.017Z,0.90
2023-01-18T23:51:31.919Z,1.45
2023-01-18T23:54:17.044Z,1.27
2023-01-18T23:56:46.099Z,2.08
2023-01-18T23:59:14.348Z,4.68
